createdAt,value
2018-11-06T00:01:12.027Z,1.00
2018-11-06T00:03:45.656Z,0.80
2018-11-06T00:06:14.101Z,0.90
2018-11-06T00:08:42.547Z,0.95
2018-11-06T00:11:11.951Z,1.40
2018-11-06T00:13:40.459Z,0.60
2018-11-06T00:16:09.862Z,0.70
2018-11-06T00:18:38.392Z,0.60
2018-11-06T00:21:07.138Z,0.45
2018-11-06T00:23:35.657Z,0.62
2018-11-06T00:26:04.174Z,0.70
2018-11-06T00:28:32.623Z,0.65
2018-11-06T00:31:01.082Z,0.70
2018-11-06T00:33:29.546Z,0.70
2018-11-06T00:35:57.982Z,0.72
2018-11-06T00:38:26.115Z,0.88
2018-11-06T00:40:54.610Z,1.10
2018-11-06T00:43:23.038Z,0.93
2018-11-06T00:45:51.451Z,0.70
2018-11-06T00:48:19.922Z,0.70
2018-11-06T00:50:48.343Z,0.82
2018-11-06T00:53:16.549Z,0.70
2018-11-06T00:55:44.996Z,0.50
2018-11-06T00:58:13.202Z,0.70
2018-11-06T01:00:41.654Z,0.78
2018-11-06T01:03:10.092Z,0.62
2018-11-06T01:05:38.551Z,0.65
2018-11-06T01:08:06.995Z,0.60
2018-11-06T01:10:35.434Z,0.40
2018-11-06T01:13:03.917Z,0.47
2018-11-06T01:15:32.372Z,0.42
2018-11-06T01:18:00.807Z,0.80
2018-11-06T01:20:29.206Z,0.40
2018-11-06T01:22:57.656Z,0.68
2018-11-06T01:25:26.114Z,0.55
2018-11-06T01:27:54.270Z,0.53
2018-11-06T01:30:22.726Z,0.60
2018-11-06T01:32:51.226Z,0.60
2018-11-06T01:35:19.685Z,0.50
2018-11-06T01:37:48.186Z,0.70
2018-11-06T01:40:17.624Z,0.50
2018-11-06T01:42:46.673Z,0.80
2018-11-06T01:45:16.588Z,0.40
2018-11-06T01:47:45.027Z,0.45
2018-11-06T01:50:14.577Z,0.47
2018-11-06T01:52:44.071Z,0.50
2018-11-06T01:55:12.777Z,0.50
2018-11-06T01:57:41.011Z,0.62
2018-11-06T02:00:12.286Z,0.70
2018-11-06T02:02:40.903Z,0.57
2018-11-06T02:05:11.114Z,0.60
2018-11-06T02:07:39.841Z,0.50
2018-11-06T02:10:08.562Z,0.47
2018-11-06T02:12:36.704Z,0.70
2018-11-06T02:15:05.424Z,0.53
2018-11-06T02:17:33.888Z,0.75
2018-11-06T02:20:02.393Z,0.50
2018-11-06T02:22:30.532Z,0.47
2018-11-06T02:24:59.007Z,0.60
2018-11-06T02:27:27.664Z,0.45
2018-11-06T02:29:56.162Z,0.50
2018-11-06T02:32:24.662Z,0.60
2018-11-06T02:34:53.096Z,0.47
2018-11-06T02:37:21.542Z,0.50
2018-11-06T02:39:49.992Z,0.40
2018-11-06T02:42:18.382Z,0.57
2018-11-06T02:44:46.821Z,0.70
2018-11-06T02:47:15.278Z,0.90
2018-11-06T02:49:43.716Z,0.70
2018-11-06T02:52:12.128Z,0.80
2018-11-06T02:54:40.582Z,1.20
2018-11-06T02:57:09.054Z,0.77
2018-11-06T02:59:37.568Z,0.60
2018-11-06T03:02:06.167Z,0.90
2018-11-06T03:04:34.608Z,0.55
2018-11-06T03:07:03.021Z,0.77
2018-11-06T03:09:31.741Z,0.60
2018-11-06T03:12:00.249Z,0.83
2018-11-06T03:14:28.696Z,0.68
2018-11-06T03:16:57.126Z,0.62
2018-11-06T03:19:25.559Z,0.43
2018-11-06T03:21:53.959Z,0.50
2018-11-06T03:24:22.411Z,0.60
2018-11-06T03:26:50.585Z,0.68
2018-11-06T03:29:18.968Z,0.60
2018-11-06T03:31:47.390Z,0.50
2018-11-06T03:34:15.796Z,0.70
2018-11-06T03:36:43.973Z,0.70
2018-11-06T03:39:12.417Z,0.60
2018-11-06T03:41:40.860Z,0.57
2018-11-06T03:44:09.301Z,0.40
2018-11-06T03:46:37.791Z,0.57
2018-11-06T03:49:06.413Z,0.57
2018-11-06T03:51:34.831Z,0.60
2018-11-06T03:54:03.307Z,0.60
2018-11-06T03:56:31.748Z,0.53
2018-11-06T03:59:00.176Z,0.70
2018-11-06T04:01:28.705Z,0.40
2018-11-06T04:03:56.858Z,0.70
2018-11-06T04:06:25.390Z,0.90
2018-11-06T04:08:53.914Z,1.10
2018-11-06T04:11:22.351Z,0.90
2018-11-06T04:13:50.811Z,0.83
2018-11-06T04:16:19.233Z,0.80
2018-11-06T04:18:47.693Z,0.90
2018-11-06T04:21:15.828Z,0.70
2018-11-06T04:23:43.956Z,0.70
2018-11-06T04:26:12.387Z,0.50
2018-11-06T04:28:40.904Z,0.50
2018-11-06T04:31:09.348Z,0.73
2018-11-06T04:33:37.768Z,0.50
2018-11-06T04:36:06.311Z,0.95
2018-11-06T04:38:34.782Z,0.90
2018-11-06T04:41:03.299Z,0.80
2018-11-06T04:43:31.719Z,0.60
2018-11-06T04:46:00.161Z,0.65
2018-11-06T04:48:28.586Z,0.40
2018-11-06T04:50:57.216Z,0.63
2018-11-06T04:53:25.685Z,0.43
2018-11-06T04:55:54.156Z,0.30
2018-11-06T04:58:22.573Z,0.50
2018-11-06T05:00:50.710Z,0.70
2018-11-06T05:03:18.858Z,0.98
2018-11-06T05:05:47.042Z,0.50
2018-11-06T05:08:15.199Z,0.53
2018-11-06T05:10:43.688Z,0.33
2018-11-06T05:13:11.830Z,0.50
2018-11-06T05:15:40.276Z,0.40
2018-11-06T05:18:08.783Z,0.37
2018-11-06T05:20:37.187Z,0.53
2018-11-06T05:23:05.991Z,0.57
2018-11-06T05:25:34.528Z,0.60
2018-11-06T05:28:02.664Z,0.53
2018-11-06T05:30:31.134Z,0.60
2018-11-06T05:32:59.687Z,0.80
2018-11-06T05:35:28.087Z,0.67
2018-11-06T05:37:56.579Z,0.50
2018-11-06T05:40:30.167Z,0.80
2018-11-06T05:42:58.663Z,0.60
2018-11-06T05:45:27.154Z,0.70
2018-11-06T05:47:55.672Z,0.60
2018-11-06T05:50:24.133Z,0.60
2018-11-06T05:52:52.591Z,0.60
2018-11-06T05:55:21.022Z,0.60
2018-11-06T05:57:49.424Z,0.43
2018-11-06T06:00:17.852Z,0.43
2018-11-06T06:02:46.303Z,0.47
2018-11-06T06:05:14.756Z,0.60
2018-11-06T06:07:43.222Z,0.40
2018-11-06T06:10:11.686Z,0.83
2018-11-06T06:12:40.156Z,0.67
2018-11-06T06:15:10.515Z,0.60
2018-11-06T06:17:38.687Z,0.60
2018-11-06T06:20:07.683Z,0.50
2018-11-06T06:22:36.176Z,0.60
2018-11-06T06:25:04.831Z,0.70
2018-11-06T06:27:33.264Z,0.53
2018-11-06T06:30:01.705Z,0.60
2018-11-06T06:32:30.243Z,0.60
2018-11-06T06:34:58.708Z,0.67
2018-11-06T06:37:27.182Z,0.77
2018-11-06T06:39:55.601Z,0.80
2018-11-06T06:42:23.749Z,0.60
2018-11-06T06:44:51.884Z,0.50
2018-11-06T06:47:51.384Z,0.57
2018-11-06T06:50:20.205Z,0.60
2018-11-06T06:52:48.940Z,0.50
2018-11-06T06:55:17.843Z,0.53
2018-11-06T06:57:46.905Z,0.60
2018-11-06T07:00:16.866Z,0.60
2018-11-06T07:02:45.276Z,0.60
2018-11-06T07:05:15.834Z,0.87
2018-11-06T07:07:44.709Z,0.40
2018-11-06T07:10:15.028Z,0.70
2018-11-06T07:12:44.497Z,0.60
2018-11-06T07:15:14.140Z,0.73
2018-11-06T07:17:43.204Z,0.70
2018-11-06T07:20:13.540Z,0.60
2018-11-06T07:22:41.944Z,0.70
2018-11-06T07:25:12.411Z,0.65
2018-11-06T07:27:41.832Z,0.62
2018-11-06T07:30:11.731Z,0.70
2018-11-06T07:32:40.634Z,0.80
2018-11-06T07:35:09.681Z,0.88
2018-11-06T07:37:38.904Z,0.95
2018-11-06T07:40:08.132Z,0.90
2018-11-06T07:42:36.692Z,0.80
2018-11-06T07:45:06.227Z,0.80
2018-11-06T07:47:34.686Z,0.68
2018-11-06T07:50:03.110Z,0.72
2018-11-06T07:52:31.428Z,0.62
2018-11-06T07:54:59.850Z,0.80
2018-11-06T07:57:28.337Z,0.65
2018-11-06T07:59:56.783Z,0.70
2018-11-06T08:02:25.200Z,0.75
2018-11-06T08:04:53.616Z,0.60
2018-11-06T08:07:22.054Z,0.82
2018-11-06T08:09:50.551Z,0.70
2018-11-06T08:12:18.994Z,0.85
2018-11-06T08:14:47.573Z,0.90
2018-11-06T08:17:16.004Z,0.70
2018-11-06T08:19:44.460Z,0.57
2018-11-06T08:22:12.863Z,0.57
2018-11-06T08:24:41.293Z,0.80
2018-11-06T08:27:09.404Z,0.50
2018-11-06T08:29:37.868Z,0.72
2018-11-06T08:32:06.723Z,0.60
2018-11-06T08:34:34.555Z,0.80
2018-11-06T08:37:03.006Z,1.47
2018-11-06T08:39:31.106Z,0.42
2018-11-06T08:41:59.519Z,0.40
2018-11-06T08:44:28.020Z,0.50
2018-11-06T08:46:56.156Z,0.57
2018-11-06T08:49:24.567Z,0.60
2018-11-06T08:51:52.968Z,0.30
2018-11-06T08:54:21.423Z,0.70
2018-11-06T08:56:49.856Z,0.50
2018-11-06T08:59:18.343Z,0.50
2018-11-06T09:01:46.740Z,0.50
2018-11-06T09:04:15.194Z,0.70
2018-11-06T09:06:43.627Z,0.50
2018-11-06T09:09:12.077Z,0.40
2018-11-06T09:11:40.515Z,0.60
2018-11-06T09:14:08.929Z,0.40
2018-11-06T09:16:37.374Z,0.90
2018-11-06T09:19:05.850Z,0.55
2018-11-06T09:21:34.270Z,0.47
2018-11-06T09:24:02.706Z,0.50
2018-11-06T09:26:31.133Z,0.50
2018-11-06T09:28:59.556Z,0.72
2018-11-06T09:31:36.518Z,0.53
2018-11-06T09:34:05.302Z,0.70
2018-11-06T09:36:33.435Z,0.53
2018-11-06T09:39:01.829Z,0.70
2018-11-06T09:41:30.298Z,0.80
2018-11-06T09:43:58.631Z,0.60
2018-11-06T09:46:27.056Z,0.60
2018-11-06T09:48:55.541Z,0.72
2018-11-06T09:51:23.964Z,0.70
2018-11-06T09:53:52.380Z,0.62
2018-11-06T09:56:20.825Z,0.53
2018-11-06T09:58:49.215Z,0.65
2018-11-06T10:01:17.616Z,0.50
2018-11-06T10:03:46.065Z,0.35
2018-11-06T10:06:14.554Z,0.60
2018-11-06T10:08:42.904Z,0.50
2018-11-06T10:11:11.170Z,0.40
2018-11-06T10:13:39.579Z,0.42
2018-11-06T10:16:08.076Z,0.42
2018-11-06T10:18:36.500Z,0.40
2018-11-06T10:21:05.208Z,0.50
2018-11-06T10:23:33.609Z,0.57
2018-11-06T10:26:02.061Z,0.55
2018-11-06T10:28:30.482Z,0.30
2018-11-06T10:30:58.932Z,0.50
2018-11-06T10:33:27.366Z,0.50
2018-11-06T10:35:55.793Z,0.42
2018-11-06T10:38:24.192Z,0.40
2018-11-06T10:40:52.653Z,0.50
2018-11-06T10:43:20.776Z,0.40
2018-11-06T10:45:49.206Z,0.93
2018-11-06T10:48:17.616Z,0.50
2018-11-06T10:50:46.054Z,0.40
2018-11-06T10:53:14.479Z,0.40
2018-11-06T10:55:42.883Z,0.30
2018-11-06T10:58:11.403Z,0.53
2018-11-06T11:00:45.048Z,0.30
2018-11-06T11:03:18.893Z,0.50
2018-11-06T11:05:47.337Z,0.30
2018-11-06T11:08:15.751Z,0.40
2018-11-06T11:10:44.211Z,0.25
2018-11-06T11:13:12.635Z,0.40
2018-11-06T11:15:41.089Z,0.30
2018-11-06T11:18:09.571Z,0.20
2018-11-06T11:20:38.041Z,0.47
2018-11-06T11:23:06.634Z,0.50
2018-11-06T11:25:35.117Z,0.42
2018-11-06T11:28:03.623Z,0.30
2018-11-06T11:30:31.732Z,0.30
2018-11-06T11:33:00.158Z,0.45
2018-11-06T11:35:28.264Z,0.40
2018-11-06T11:37:56.693Z,0.40
2018-11-06T11:40:25.101Z,0.30
2018-11-06T11:42:53.528Z,0.40
2018-11-06T11:45:21.915Z,0.85
2018-11-06T11:47:50.402Z,0.60
2018-11-06T11:50:18.827Z,0.42
2018-11-06T11:52:47.268Z,0.37
2018-11-06T11:55:15.683Z,0.40
2018-11-06T11:57:44.096Z,0.42
2018-11-06T12:00:18.148Z,0.40
2018-11-06T12:02:46.636Z,0.50
2018-11-06T12:05:15.106Z,0.50
2018-11-06T12:07:43.569Z,0.40
2018-11-06T12:10:12.686Z,0.50
2018-11-06T12:12:41.423Z,0.40
2018-11-06T12:15:12.611Z,0.30
2018-11-06T12:17:41.544Z,0.40
2018-11-06T12:20:10.198Z,0.55
2018-11-06T12:22:39.206Z,0.40
2018-11-06T12:25:08.152Z,0.93
2018-11-06T12:27:36.844Z,1.10
2018-11-06T12:30:07.409Z,0.30
2018-11-06T12:32:35.920Z,0.40
2018-11-06T12:35:04.404Z,0.30
2018-11-06T12:37:32.840Z,0.35
2018-11-06T12:40:01.247Z,0.40
2018-11-06T12:42:29.707Z,0.78
2018-11-06T12:44:58.147Z,0.40
2018-11-06T12:47:26.607Z,0.30
2018-11-06T12:49:55.267Z,0.20
2018-11-06T12:52:23.688Z,0.42
2018-11-06T12:54:54.221Z,0.40
2018-11-06T12:57:22.675Z,0.30
2018-11-06T12:59:51.200Z,0.30
2018-11-06T13:02:19.677Z,0.25
2018-11-06T13:04:48.137Z,0.20
2018-11-06T13:07:16.567Z,0.20
2018-11-06T13:09:44.986Z,0.20
2018-11-06T13:12:13.443Z,0.20
2018-11-06T13:14:41.880Z,0.30
2018-11-06T13:17:10.399Z,0.33
2018-11-06T13:19:38.818Z,0.17
2018-11-06T13:22:07.659Z,0.28
2018-11-06T13:24:36.119Z,0.25
2018-11-06T13:27:04.799Z,0.10
2018-11-06T13:29:33.241Z,1.22
2018-11-06T13:32:01.633Z,0.30
2018-11-06T13:34:30.063Z,0.20
2018-11-06T13:36:58.459Z,0.20
2018-11-06T13:39:27.095Z,0.20
2018-11-06T13:41:55.497Z,0.10
2018-11-06T13:44:24.343Z,0.37
2018-11-06T13:46:52.347Z,0.33
2018-11-06T13:49:20.773Z,0.30
2018-11-06T13:51:49.191Z,0.10
2018-11-06T13:54:17.668Z,0.20
2018-11-06T13:56:46.100Z,0.10
2018-11-06T13:59:14.542Z,0.20
2018-11-06T14:01:42.994Z,0.10
2018-11-06T14:04:11.144Z,0.10
2018-11-06T14:06:39.343Z,0.20
2018-11-06T14:09:09.064Z,0.10
2018-11-06T14:11:37.451Z,0.10
2018-11-06T14:14:06.452Z,0.10
2018-11-06T14:16:34.874Z,0.20
2018-11-06T14:19:03.362Z,0.13
2018-11-06T14:21:31.874Z,0.62
2018-11-06T14:24:00.402Z,0.25
2018-11-06T14:26:28.947Z,0.23
2018-11-06T14:28:57.483Z,0.10
2018-11-06T14:31:25.945Z,0.20
2018-11-06T14:33:54.181Z,0.20
2018-11-06T14:36:22.620Z,0.20
2018-11-06T14:38:51.131Z,0.08
2018-11-06T14:41:19.623Z,0.13
2018-11-06T14:43:48.118Z,0.10
2018-11-06T14:46:16.549Z,0.10
2018-11-06T14:48:45.151Z,0.20
2018-11-06T14:51:13.514Z,0.10
2018-11-06T14:53:42.029Z,0.20
2018-11-06T14:56:10.570Z,0.57
2018-11-06T14:58:38.927Z,0.37
2018-11-06T15:01:07.483Z,0.50
2018-11-06T15:03:35.938Z,0.20
2018-11-06T15:06:04.104Z,0.30
2018-11-06T15:08:32.527Z,0.50
2018-11-06T15:11:01.084Z,0.42
2018-11-06T15:13:29.499Z,0.20
2018-11-06T15:15:57.955Z,0.30
2018-11-06T15:18:26.405Z,0.30
2018-11-06T15:20:54.950Z,0.40
2018-11-06T15:23:23.387Z,0.40
2018-11-06T15:25:51.831Z,0.45
2018-11-06T15:28:20.252Z,0.30
2018-11-06T15:30:48.733Z,0.47
2018-11-06T15:33:17.161Z,1.85
2018-11-06T15:35:45.608Z,0.55
2018-11-06T15:38:13.716Z,1.47
2018-11-06T15:40:41.915Z,1.32
2018-11-06T15:43:09.991Z,0.72
2018-11-06T15:45:38.492Z,0.85
2018-11-06T15:48:06.939Z,0.70
2018-11-06T15:50:35.411Z,0.35
2018-11-06T15:53:03.940Z,0.35
2018-11-06T15:55:32.385Z,0.40
2018-11-06T15:58:00.789Z,0.20
2018-11-06T16:00:29.238Z,0.30
2018-11-06T16:02:57.659Z,0.55
2018-11-06T16:05:26.052Z,0.40
2018-11-06T16:07:54.469Z,0.50
2018-11-06T16:10:23.649Z,0.30
2018-11-06T16:12:52.104Z,0.35
2018-11-06T16:15:20.589Z,0.30
2018-11-06T16:17:49.099Z,0.33
2018-11-06T16:20:18.888Z,0.35
2018-11-06T16:22:47.329Z,0.50
2018-11-06T16:25:16.918Z,0.40
2018-11-06T16:27:45.787Z,0.53
2018-11-06T16:30:17.167Z,0.40
2018-11-06T16:32:45.643Z,0.53
2018-11-06T16:35:15.536Z,0.60
2018-11-06T16:37:44.374Z,2.37
2018-11-06T16:40:13.357Z,2.47
2018-11-06T16:42:42.282Z,1.77
2018-11-06T16:45:13.502Z,2.50
2018-11-06T16:47:42.480Z,3.33
2018-11-06T16:50:12.324Z,3.58
2018-11-06T16:52:40.811Z,2.15
2018-11-06T16:55:09.749Z,1.82
2018-11-06T16:57:38.914Z,2.00
2018-11-06T17:00:09.359Z,1.62
2018-11-06T17:02:37.854Z,1.50
2018-11-06T17:05:06.925Z,1.22
2018-11-06T17:07:35.414Z,2.00
2018-11-06T17:10:04.496Z,4.55
2018-11-06T17:12:32.899Z,1.45
2018-11-06T17:15:01.011Z,1.72
2018-11-06T17:17:29.526Z,0.90
2018-11-06T17:19:58.023Z,0.98
2018-11-06T17:22:26.152Z,1.00
2018-11-06T17:24:54.567Z,2.22
2018-11-06T17:27:23.066Z,1.62
2018-11-06T17:29:51.481Z,1.92
2018-11-06T17:32:19.899Z,1.40
2018-11-06T17:34:48.074Z,1.85
2018-11-06T17:37:16.544Z,2.10
2018-11-06T17:39:44.974Z,1.90
2018-11-06T17:42:13.482Z,1.85
2018-11-06T17:44:41.902Z,5.50
2018-11-06T17:47:10.343Z,5.03
2018-11-06T17:49:38.766Z,6.90
2018-11-06T17:52:07.202Z,5.20
2018-11-06T17:54:35.651Z,4.72
2018-11-06T17:57:04.162Z,3.58
2018-11-06T17:59:32.647Z,3.62
2018-11-06T18:02:01.177Z,1.82
2018-11-06T18:04:29.782Z,1.90
2018-11-06T18:06:58.126Z,2.00
2018-11-06T18:09:26.951Z,2.55
2018-11-06T18:11:55.463Z,4.10
2018-11-06T18:14:23.892Z,7.40
2018-11-06T18:16:52.354Z,7.80
2018-11-06T18:19:20.788Z,9.93
2018-11-06T18:21:49.266Z,6.17
2018-11-06T18:24:17.716Z,5.58
2018-11-06T18:26:46.214Z,4.70
2018-11-06T18:29:14.642Z,3.12
2018-11-06T18:31:43.103Z,2.37
2018-11-06T18:34:11.504Z,2.75
2018-11-06T18:36:39.690Z,2.52
2018-11-06T18:39:09.946Z,4.28
2018-11-06T18:41:38.417Z,2.87
2018-11-06T18:44:07.129Z,2.60
2018-11-06T18:46:35.591Z,2.55
2018-11-06T18:49:04.530Z,2.52
2018-11-06T18:51:33.008Z,2.42
2018-11-06T18:54:01.829Z,2.10
2018-11-06T18:56:30.260Z,2.27
2018-11-06T18:58:58.722Z,2.40
2018-11-06T19:01:26.921Z,1.47
2018-11-06T19:03:55.430Z,1.80
2018-11-06T19:06:23.944Z,1.22
2018-11-06T19:08:53.230Z,1.30
2018-11-06T19:11:21.383Z,1.10
2018-11-06T19:13:49.810Z,2.02
2018-11-06T19:16:17.978Z,0.62
2018-11-06T19:18:46.404Z,1.35
2018-11-06T19:21:14.582Z,0.72
2018-11-06T19:23:43.041Z,0.90
2018-11-06T19:26:11.495Z,0.93
2018-11-06T19:28:39.650Z,0.65
2018-11-06T19:31:08.118Z,0.60
2018-11-06T19:33:36.579Z,0.60
2018-11-06T19:36:05.308Z,0.60
2018-11-06T19:38:33.758Z,0.50
2018-11-06T19:41:02.225Z,0.50
2018-11-06T19:43:30.700Z,0.50
2018-11-06T19:45:59.186Z,0.50
2018-11-06T19:48:27.660Z,0.50
2018-11-06T19:50:56.132Z,0.60
2018-11-06T19:53:24.356Z,0.60
2018-11-06T19:55:52.764Z,0.80
2018-11-06T19:58:21.205Z,1.35
2018-11-06T20:00:49.747Z,1.42
2018-11-06T20:03:18.494Z,1.35
2018-11-06T20:05:47.104Z,1.62
2018-11-06T20:08:15.462Z,1.45
2018-11-06T20:10:43.904Z,1.20
2018-11-06T20:13:12.332Z,1.10
2018-11-06T20:15:40.771Z,1.50
2018-11-06T20:18:09.272Z,1.42
2018-11-06T20:20:37.718Z,1.02
2018-11-06T20:23:06.198Z,1.20
2018-11-06T20:25:34.315Z,1.57
2018-11-06T20:28:02.761Z,1.07
2018-11-06T20:30:31.210Z,0.60
2018-11-06T20:32:59.645Z,0.60
2018-11-06T20:35:28.138Z,0.75
2018-11-06T20:37:56.689Z,0.93
2018-11-06T20:40:25.968Z,0.93
2018-11-06T20:42:54.210Z,1.00
2018-11-06T20:45:22.956Z,0.70
2018-11-06T20:47:51.407Z,1.07
2018-11-06T20:50:21.319Z,0.60
2018-11-06T20:55:48.856Z,0.78
2018-11-06T20:58:17.341Z,0.80
2018-11-06T21:00:45.790Z,0.78
2018-11-06T21:03:14.258Z,0.80
2018-11-06T21:05:42.731Z,0.90
2018-11-06T21:08:11.134Z,0.90
2018-11-06T21:10:39.628Z,1.00
2018-11-06T21:13:08.123Z,1.00
2018-11-06T21:15:36.508Z,1.50
2018-11-06T21:18:05.113Z,1.47
2018-11-06T21:20:33.431Z,1.25
2018-11-06T21:23:01.920Z,1.32
2018-11-06T21:25:30.529Z,1.30
2018-11-06T21:27:58.919Z,1.20
2018-11-06T21:30:27.343Z,1.77
2018-11-06T21:32:55.845Z,1.60
2018-11-06T21:35:24.251Z,1.67
2018-11-06T21:37:52.941Z,1.55
2018-11-06T21:40:21.891Z,1.72
2018-11-06T21:42:51.154Z,1.70
2018-11-06T21:45:19.710Z,1.60
2018-11-06T21:47:49.043Z,1.80
2018-11-06T21:50:17.962Z,2.17
2018-11-06T21:52:46.461Z,1.52
2018-11-06T21:55:16.199Z,2.33
2018-11-06T21:57:44.652Z,1.75
2018-11-06T22:00:17.706Z,2.05
2018-11-06T22:02:45.848Z,2.42
2018-11-06T22:05:24.672Z,2.00
2018-11-06T22:07:53.618Z,2.30
2018-11-06T22:10:22.368Z,2.20
2018-11-06T22:12:50.830Z,2.27
2018-11-06T22:15:19.846Z,2.10
2018-11-06T22:17:48.308Z,2.52
2018-11-06T22:20:18.042Z,2.37
2018-11-06T22:22:46.899Z,3.30
2018-11-06T22:25:15.402Z,3.10
2018-11-06T22:27:44.151Z,3.10
2018-11-06T22:30:13.875Z,2.98
2018-11-06T22:32:42.986Z,2.85
2018-11-06T22:35:13.539Z,3.33
2018-11-06T22:37:41.901Z,3.27
2018-11-06T22:40:11.375Z,3.42
2018-11-06T22:42:39.522Z,3.83
2018-11-06T22:45:09.648Z,3.70
2018-11-06T22:47:38.252Z,3.80
2018-11-06T22:50:07.183Z,4.00
2018-11-06T22:52:35.358Z,4.97
2018-11-06T22:55:03.555Z,4.15
2018-11-06T22:57:32.051Z,4.40
2018-11-06T23:00:00.534Z,4.28
2018-11-06T23:02:28.994Z,4.72
2018-11-06T23:04:57.485Z,4.00
2018-11-06T23:07:30.954Z,3.65
2018-11-06T23:09:59.476Z,3.62
2018-11-06T23:12:27.981Z,4.80
2018-11-06T23:14:56.498Z,4.17
2018-11-06T23:17:24.983Z,3.22
2018-11-06T23:19:53.429Z,3.27
2018-11-06T23:22:21.880Z,3.35
2018-11-06T23:24:50.367Z,2.98
2018-11-06T23:27:18.783Z,3.50
2018-11-06T23:29:47.263Z,3.80
2018-11-06T23:32:15.712Z,3.55
2018-11-06T23:34:44.157Z,3.05
2018-11-06T23:37:12.623Z,3.75
2018-11-06T23:39:41.084Z,3.62
2018-11-06T23:42:09.524Z,3.90
2018-11-06T23:44:38.009Z,3.77
2018-11-06T23:47:06.493Z,4.53
2018-11-06T23:49:34.928Z,4.22
2018-11-06T23:52:03.084Z,4.40
2018-11-06T23:54:31.554Z,4.47
2018-11-06T23:57:00.013Z,4.62
2018-11-06T23:59:28.431Z,4.67
